createdAt,value
2023-02-14T00:01:20.611Z,35.58
2023-02-14T00:03:49.376Z,37.95
2023-02-14T00:06:17.426Z,38.83
2023-02-14T00:08:45.525Z,40.10
2023-02-14T00:11:13.970Z,37.47
2023-02-14T00:14:01.526Z,38.42
2023-02-14T00:16:28.835Z,37.20
2023-02-14T00:19:05.466Z,37.20
2023-02-14T00:21:36.585Z,36.17
2023-02-14T00:24:10.997Z,37.90
2023-02-14T00:26:38.836Z,36.55
2023-02-14T00:29:07.663Z,38.33
2023-02-14T00:31:35.875Z,39.47
2023-02-14T00:34:04.650Z,37.08
2023-02-14T00:36:32.249Z,34.70
2023-02-14T00:38:59.508Z,44.33
2023-02-14T00:41:26.854Z,39.60
2023-02-14T00:43:54.472Z,34.90
2023-02-14T00:46:23.859Z,36.50
2023-02-14T00:48:51.799Z,37.30
2023-02-14T00:51:19.845Z,38.70
2023-02-14T00:53:48.768Z,35.40
2023-02-14T00:56:17.043Z,37.92
2023-02-14T00:58:45.054Z,35.45
2023-02-14T01:01:12.793Z,35.78
2023-02-14T01:03:40.273Z,36.65
2023-02-14T01:06:08.475Z,37.20
2023-02-14T01:08:35.894Z,35.42
2023-02-14T01:11:10.137Z,35.63
2023-02-14T01:13:37.870Z,35.05
2023-02-14T01:16:10.614Z,37.70
2023-02-14T01:18:38.636Z,35.78
2023-02-14T01:21:20.148Z,33.65
2023-02-14T01:23:51.605Z,34.97
2023-02-14T01:26:21.014Z,33.25
2023-02-14T01:28:49.231Z,34.60
2023-02-14T01:31:28.494Z,36.60
2023-02-14T01:33:58.605Z,34.20
2023-02-14T01:36:32.509Z,36.30
2023-02-14T01:39:03.023Z,36.33
2023-02-14T01:41:32.818Z,38.67
2023-02-14T01:44:02.073Z,39.25
2023-02-14T01:46:32.730Z,37.55
2023-02-14T01:49:10.308Z,35.90
2023-02-14T01:51:42.976Z,34.72
2023-02-14T01:54:11.617Z,38.17
2023-02-14T01:56:43.714Z,39.20
2023-02-14T01:59:17.101Z,39.25
2023-02-14T02:01:46.831Z,37.80
2023-02-14T02:04:19.071Z,38.85
2023-02-14T02:06:52.324Z,35.88
2023-02-14T02:09:34.143Z,36.15
2023-02-14T02:12:02.241Z,37.67
2023-02-14T02:14:29.634Z,35.67
2023-02-14T02:17:21.643Z,37.80
2023-02-14T02:20:07.507Z,42.47
2023-02-14T02:22:59.565Z,44.92
2023-02-14T02:25:51.079Z,39.15
2023-02-14T02:28:40.252Z,38.35
2023-02-14T02:31:54.578Z,37.80
2023-02-14T02:34:37.436Z,39.00
2023-02-14T02:37:25.412Z,43.22
2023-02-14T02:40:22.231Z,40.75
2023-02-14T02:43:20.882Z,40.15
2023-02-14T02:46:14.494Z,45.95
2023-02-14T02:48:58.441Z,40.67
2023-02-14T02:52:16.227Z,40.20
2023-02-14T02:54:50.114Z,36.97
2023-02-14T02:57:23.700Z,37.35
2023-02-14T02:59:53.620Z,40.90
2023-02-14T03:02:31.006Z,35.92
2023-02-14T03:05:05.353Z,35.88
2023-02-14T03:07:41.494Z,37.33
2023-02-14T03:10:30.079Z,41.15
2023-02-14T03:12:57.627Z,31.52
2023-02-14T03:15:48.317Z,39.40
2023-02-14T03:18:34.534Z,36.78
2023-02-14T03:21:30.821Z,49.38
2023-02-14T03:24:15.148Z,41.08
2023-02-14T03:26:59.429Z,41.15
2023-02-14T03:29:43.608Z,40.00
2023-02-14T03:32:35.284Z,37.97
2023-02-14T03:35:24.085Z,39.45
2023-02-14T03:38:15.236Z,37.97
2023-02-14T03:40:45.400Z,35.97
2023-02-14T03:43:35.644Z,37.85
2023-02-14T03:46:11.861Z,37.30
2023-02-14T03:48:40.648Z,37.35
2023-02-14T03:51:11.792Z,36.17
2023-02-14T03:53:49.901Z,36.60
2023-02-14T03:56:39.992Z,37.08
2023-02-14T03:59:21.723Z,39.35
2023-02-14T04:02:11.036Z,35.60
2023-02-14T04:04:45.045Z,35.10
2023-02-14T04:07:18.565Z,33.17
2023-02-14T04:09:46.421Z,36.38
2023-02-14T04:12:14.748Z,35.45
2023-02-14T04:14:42.668Z,35.53
2023-02-14T04:17:28.315Z,34.55
2023-02-14T04:19:55.709Z,35.80
2023-02-14T04:22:22.983Z,37.58
2023-02-14T04:24:50.209Z,34.08
2023-02-14T04:27:17.467Z,36.67
2023-02-14T04:29:47.615Z,36.83
2023-02-14T04:32:18.631Z,36.10
2023-02-14T04:34:46.324Z,36.45
2023-02-14T04:37:15.635Z,34.65
2023-02-14T04:39:42.976Z,33.40
2023-02-14T04:42:10.306Z,36.65
2023-02-14T04:44:40.386Z,35.65
2023-02-14T04:47:08.507Z,34.65
2023-02-14T04:49:36.449Z,34.25
2023-02-14T04:52:04.885Z,36.47
2023-02-14T04:54:32.599Z,38.25
2023-02-14T04:56:59.835Z,37.65
2023-02-14T04:59:27.147Z,38.45
2023-02-14T05:01:54.719Z,38.25
2023-02-14T05:04:22.012Z,39.58
2023-02-14T05:06:49.303Z,43.25
2023-02-14T05:09:16.557Z,41.30
2023-02-14T05:11:43.783Z,41.00
2023-02-14T05:14:11.316Z,40.88
2023-02-14T05:16:38.701Z,39.08
2023-02-14T05:19:06.152Z,36.63
2023-02-14T05:21:33.487Z,45.55
2023-02-14T05:24:01.481Z,37.58
2023-02-14T05:26:29.223Z,37.33
2023-02-14T05:28:56.673Z,35.10
2023-02-14T05:31:24.055Z,35.05
2023-02-14T05:33:51.373Z,34.40
2023-02-14T05:36:18.661Z,36.28
2023-02-14T05:38:45.967Z,36.10
2023-02-14T05:41:13.180Z,35.70
2023-02-14T05:43:40.439Z,34.85
2023-02-14T05:46:08.335Z,35.03
2023-02-14T05:48:35.718Z,37.13
2023-02-14T05:51:07.216Z,37.40
2023-02-14T05:53:34.528Z,38.92
2023-02-14T05:56:02.808Z,38.95
2023-02-14T05:58:30.068Z,44.53
2023-02-14T06:00:58.451Z,42.30
2023-02-14T06:03:25.957Z,44.10
2023-02-14T06:05:53.267Z,43.08
2023-02-14T06:08:20.958Z,40.35
2023-02-14T06:10:48.161Z,40.85
2023-02-14T06:13:15.515Z,39.72
2023-02-14T06:15:42.824Z,41.03
2023-02-14T06:18:10.102Z,41.30
2023-02-14T06:20:37.417Z,43.22
2023-02-14T06:23:05.034Z,47.63
2023-02-14T06:25:32.787Z,49.60
2023-02-14T06:28:00.295Z,46.70
2023-02-14T06:30:28.377Z,44.13
2023-02-14T06:32:55.802Z,41.85
2023-02-14T06:35:23.845Z,40.03
2023-02-14T06:37:51.009Z,41.00
2023-02-14T06:40:19.641Z,40.70
2023-02-14T06:42:47.559Z,40.80
2023-02-14T06:45:14.786Z,38.72
2023-02-14T06:47:42.107Z,38.63
2023-02-14T06:50:11.681Z,39.10
2023-02-14T06:52:39.202Z,37.75
2023-02-14T06:55:06.905Z,39.92
2023-02-14T06:57:34.581Z,37.60
2023-02-14T07:00:01.835Z,43.25
2023-02-14T07:02:29.196Z,38.00
2023-02-14T07:04:56.581Z,36.40
2023-02-14T07:07:23.901Z,37.08
2023-02-14T07:09:51.667Z,39.75
2023-02-14T07:12:18.899Z,37.80
2023-02-14T07:14:46.217Z,40.40
2023-02-14T07:17:13.879Z,36.10
2023-02-14T07:19:41.092Z,37.00
2023-02-14T07:22:08.457Z,40.03
2023-02-14T07:24:35.730Z,38.30
2023-02-14T07:27:03.056Z,38.80
2023-02-14T07:29:30.451Z,40.40
2023-02-14T07:31:57.792Z,39.65
2023-02-14T07:34:25.320Z,42.85
2023-02-14T07:36:52.584Z,43.60
2023-02-14T07:39:19.987Z,45.30
2023-02-14T07:41:47.289Z,46.85
2023-02-14T07:44:19.584Z,43.72
2023-02-14T07:46:46.924Z,44.75
2023-02-14T07:49:14.484Z,45.15
2023-02-14T07:51:42.945Z,43.45
2023-02-14T07:54:10.273Z,49.08
2023-02-14T07:56:37.555Z,46.67
2023-02-14T07:59:05.247Z,51.00
2023-02-14T08:01:32.550Z,45.42
2023-02-14T08:03:59.930Z,45.85
2023-02-14T08:06:29.164Z,44.97
2023-02-14T08:08:56.431Z,44.40
2023-02-14T08:11:42.497Z,46.53
2023-02-14T08:14:09.803Z,44.78
2023-02-14T08:16:38.304Z,47.60
2023-02-14T08:19:05.785Z,47.42
2023-02-14T08:21:33.674Z,46.55
2023-02-14T08:24:00.934Z,45.40
2023-02-14T08:26:28.278Z,43.10
2023-02-14T08:28:55.542Z,43.85
2023-02-14T08:31:35.732Z,43.60
2023-02-14T08:34:07.175Z,45.60
2023-02-14T08:36:35.158Z,45.17
2023-02-14T08:39:04.753Z,43.17
2023-02-14T08:41:32.257Z,45.92
2023-02-14T08:43:59.572Z,42.45
2023-02-14T08:46:26.921Z,42.35
2023-02-14T08:48:54.876Z,45.80
2023-02-14T08:51:22.777Z,46.13
2023-02-14T08:53:51.733Z,50.05
2023-02-14T08:56:21.003Z,50.03
2023-02-14T08:58:51.284Z,50.15
2023-02-14T09:01:19.018Z,46.70
2023-02-14T09:03:46.518Z,47.25
2023-02-14T09:06:17.402Z,48.40
2023-02-14T09:08:45.472Z,48.35
2023-02-14T09:11:15.430Z,49.63
2023-02-14T09:13:43.283Z,49.55
2023-02-14T09:16:12.820Z,48.03
2023-02-14T09:18:40.697Z,52.17
2023-02-14T09:21:13.568Z,52.20
2023-02-14T09:23:40.857Z,47.35
2023-02-14T09:26:10.628Z,52.22
2023-02-14T09:28:38.568Z,50.45
2023-02-14T09:31:13.527Z,50.70
2023-02-14T09:33:41.596Z,51.58
2023-02-14T09:36:27.640Z,51.28
2023-02-14T09:38:55.459Z,53.85
2023-02-14T09:41:25.399Z,52.50
2023-02-14T09:44:00.462Z,54.03
2023-02-14T09:46:30.778Z,53.65
2023-02-14T09:48:58.747Z,54.30
2023-02-14T09:51:31.150Z,54.45
2023-02-14T09:54:10.398Z,56.13
2023-02-14T09:57:03.063Z,56.42
2023-02-14T09:59:42.477Z,53.45
2023-02-14T10:02:45.698Z,55.80
2023-02-14T10:05:42.383Z,57.35
2023-02-14T10:08:31.372Z,57.13
2023-02-14T10:11:11.950Z,55.90
2023-02-14T10:13:42.447Z,58.10
2023-02-14T10:16:16.782Z,56.30
2023-02-14T10:18:54.388Z,59.28
2023-02-14T10:21:33.948Z,61.10
2023-02-14T10:24:23.393Z,55.75
2023-02-14T10:26:52.693Z,58.00
2023-02-14T10:29:20.843Z,55.42
2023-02-14T10:31:58.573Z,56.45
2023-02-14T10:34:35.100Z,58.63
2023-02-14T10:37:30.191Z,58.78
2023-02-14T10:40:06.134Z,54.65
2023-02-14T10:43:15.262Z,56.40
2023-02-14T10:45:47.984Z,52.75
2023-02-14T10:48:30.280Z,55.70
2023-02-14T10:51:16.435Z,53.72
2023-02-14T10:54:02.500Z,50.80
2023-02-14T10:56:48.100Z,51.80
2023-02-14T10:59:51.030Z,51.08
2023-02-14T11:02:23.765Z,52.08
2023-02-14T11:04:51.411Z,52.28
2023-02-14T11:07:21.484Z,55.05
2023-02-14T11:09:48.819Z,50.08
2023-02-14T11:12:43.814Z,49.63
2023-02-14T11:15:14.079Z,53.47
2023-02-14T11:17:42.435Z,50.65
2023-02-14T11:20:30.313Z,48.28
2023-02-14T11:22:57.917Z,51.40
2023-02-14T11:25:27.760Z,48.83
2023-02-14T11:28:02.509Z,49.90
2023-02-14T11:30:40.983Z,48.63
2023-02-14T11:33:41.050Z,48.97
2023-02-14T11:36:16.707Z,44.92
2023-02-14T11:38:45.729Z,45.55
2023-02-14T11:41:16.271Z,40.22
2023-02-14T11:43:45.454Z,40.17
2023-02-14T11:46:15.730Z,43.63
2023-02-14T11:49:01.500Z,37.67
2023-02-14T11:51:40.641Z,36.65
2023-02-14T11:54:14.254Z,36.05
2023-02-14T11:56:53.964Z,37.17
2023-02-14T11:59:33.204Z,36.03
2023-02-14T12:02:29.289Z,34.95
2023-02-14T12:05:03.936Z,32.10
2023-02-14T12:07:33.470Z,33.45
2023-02-14T12:10:19.394Z,32.25
2023-02-14T12:12:49.482Z,31.55
2023-02-14T12:15:26.917Z,31.00
2023-02-14T12:18:03.850Z,32.25
2023-02-14T12:21:00.701Z,31.88
2023-02-14T12:23:42.152Z,29.23
2023-02-14T12:26:47.782Z,29.15
2023-02-14T12:29:38.918Z,28.25
2023-02-14T12:32:18.940Z,25.63
2023-02-14T12:34:46.391Z,23.65
2023-02-14T12:37:39.528Z,23.77
2023-02-14T12:40:31.846Z,25.25
2023-02-14T12:43:17.570Z,24.10
2023-02-14T12:46:09.519Z,22.17
2023-02-14T12:49:10.738Z,19.98
2023-02-14T12:52:05.229Z,21.10
2023-02-14T12:54:55.393Z,16.13
2023-02-14T12:58:00.492Z,7.57
2023-02-14T13:00:58.888Z,6.90
2023-02-14T13:03:45.068Z,7.15
2023-02-14T13:06:28.378Z,5.70
2023-02-14T13:09:13.465Z,7.15
2023-02-14T13:12:11.218Z,7.80
2023-02-14T13:14:41.759Z,8.07
2023-02-14T13:17:15.188Z,6.38
2023-02-14T13:20:12.890Z,6.72
2023-02-14T13:22:41.543Z,6.90
2023-02-14T13:25:31.695Z,5.65
2023-02-14T13:28:01.547Z,7.47
2023-02-14T13:30:38.785Z,5.80
2023-02-14T13:33:09.872Z,6.15
2023-02-14T13:35:37.751Z,7.38
2023-02-14T13:38:08.653Z,8.70
2023-02-14T13:40:36.436Z,11.10
2023-02-14T13:43:03.926Z,10.88
2023-02-14T13:45:40.161Z,12.25
2023-02-14T13:48:12.173Z,14.02
2023-02-14T13:50:52.435Z,16.60
2023-02-14T13:53:44.608Z,12.68
2023-02-14T13:56:11.960Z,13.27
2023-02-14T13:58:59.938Z,13.75
2023-02-14T14:01:50.045Z,15.38
2023-02-14T14:04:26.597Z,14.75
2023-02-14T14:07:02.858Z,13.05
2023-02-14T14:09:42.094Z,12.93
2023-02-14T14:12:27.808Z,12.05
2023-02-14T14:15:08.546Z,10.13
2023-02-14T14:17:38.113Z,9.02
2023-02-14T14:20:20.275Z,8.27
2023-02-14T14:22:58.524Z,7.03
2023-02-14T14:25:41.052Z,7.65
2023-02-14T14:28:20.916Z,7.20
2023-02-14T14:30:48.398Z,7.45
2023-02-14T14:33:34.323Z,6.88
2023-02-14T14:36:08.791Z,6.90
2023-02-14T14:38:48.290Z,6.95
2023-02-14T14:41:15.685Z,7.70
2023-02-14T14:43:43.463Z,7.97
2023-02-14T14:46:15.866Z,8.35
2023-02-14T14:48:51.610Z,8.05
2023-02-14T14:51:34.489Z,7.90
2023-02-14T14:54:06.722Z,9.80
2023-02-14T14:56:44.736Z,7.35
2023-02-14T14:59:19.525Z,6.72
2023-02-14T15:01:47.881Z,8.32
2023-02-14T15:04:15.208Z,7.40
2023-02-14T15:06:43.006Z,7.45
2023-02-14T15:09:23.958Z,6.55
2023-02-14T15:12:12.932Z,7.32
2023-02-14T15:14:44.520Z,6.50
2023-02-14T15:17:22.600Z,6.80
2023-02-14T15:20:03.874Z,7.05
2023-02-14T15:22:45.803Z,6.70
2023-02-14T15:25:32.178Z,6.55
2023-02-14T15:28:00.694Z,5.40
2023-02-14T15:30:38.932Z,6.72
2023-02-14T15:33:07.934Z,6.43
2023-02-14T15:35:38.963Z,5.65
2023-02-14T15:38:09.998Z,6.60
2023-02-14T15:40:38.841Z,6.78
2023-02-14T15:43:39.359Z,7.05
2023-02-14T15:46:26.316Z,6.60
2023-02-14T15:48:55.792Z,7.38
2023-02-14T15:51:27.135Z,7.90
2023-02-14T15:54:00.646Z,7.38
2023-02-14T15:56:31.415Z,7.50
2023-02-14T15:59:07.791Z,8.27
2023-02-14T16:01:36.892Z,7.80
2023-02-14T16:04:06.968Z,8.70
2023-02-14T16:06:40.387Z,9.77
2023-02-14T16:09:24.937Z,8.60
2023-02-14T16:11:53.829Z,7.93
2023-02-14T16:14:37.978Z,8.43
2023-02-14T16:17:35.036Z,8.95
2023-02-14T16:20:33.722Z,8.48
2023-02-14T16:23:29.441Z,8.35
2023-02-14T16:25:59.565Z,8.27
2023-02-14T16:28:30.949Z,7.70
2023-02-14T16:31:01.001Z,8.27
2023-02-14T16:33:35.524Z,8.98
2023-02-14T16:36:15.790Z,9.05
2023-02-14T16:38:45.688Z,8.15
2023-02-14T16:41:18.669Z,8.95
2023-02-14T16:43:47.466Z,9.30
2023-02-14T16:46:17.294Z,9.68
2023-02-14T16:48:52.055Z,9.80
2023-02-14T16:51:25.621Z,9.20
2023-02-14T16:53:55.168Z,9.95
2023-02-14T16:56:29.861Z,10.45
2023-02-14T16:59:00.101Z,11.35
2023-02-14T17:01:27.993Z,10.65
2023-02-14T17:03:55.697Z,9.63
2023-02-14T17:06:27.546Z,11.68
2023-02-14T17:08:57.752Z,11.63
2023-02-14T17:11:26.790Z,11.55
2023-02-14T17:13:55.284Z,13.25
2023-02-14T17:16:22.847Z,12.65
2023-02-14T17:18:52.424Z,13.32
2023-02-14T17:21:23.987Z,13.52
2023-02-14T17:23:51.270Z,12.52
2023-02-14T17:26:19.890Z,13.10
2023-02-14T17:28:47.327Z,13.88
2023-02-14T17:31:15.157Z,14.40
2023-02-14T17:33:42.557Z,16.73
2023-02-14T17:36:12.466Z,16.70
2023-02-14T17:38:43.288Z,14.52
2023-02-14T17:41:18.706Z,15.43
2023-02-14T17:43:46.448Z,16.17
2023-02-14T17:46:15.367Z,16.40
2023-02-14T17:48:45.439Z,16.35
2023-02-14T17:51:14.811Z,16.00
2023-02-14T17:53:43.872Z,18.45
2023-02-14T17:56:20.343Z,18.25
2023-02-14T17:58:49.534Z,16.83
2023-02-14T18:01:19.522Z,19.45
2023-02-14T18:03:47.312Z,19.77
2023-02-14T18:06:15.232Z,19.60
2023-02-14T18:08:49.841Z,18.92
2023-02-14T18:11:19.273Z,24.05
2023-02-14T18:13:46.986Z,24.48
2023-02-14T18:16:16.938Z,23.27
2023-02-14T18:18:45.093Z,22.88
2023-02-14T18:21:16.628Z,22.80
2023-02-14T18:23:44.025Z,22.75
2023-02-14T18:26:14.127Z,22.65
2023-02-14T18:28:41.604Z,21.45
2023-02-14T18:31:10.356Z,21.90
2023-02-14T18:33:38.763Z,22.20
2023-02-14T18:36:14.419Z,23.33
2023-02-14T18:38:43.614Z,24.67
2023-02-14T18:41:13.594Z,26.20
2023-02-14T18:43:41.600Z,28.17
2023-02-14T18:46:14.004Z,29.73
2023-02-14T18:48:41.407Z,31.00
2023-02-14T18:51:10.831Z,30.55
2023-02-14T18:53:39.430Z,30.48
2023-02-14T18:56:09.631Z,31.65
2023-02-14T18:58:36.954Z,33.72
2023-02-14T19:01:13.147Z,33.63
2023-02-14T19:03:41.250Z,34.75
2023-02-14T19:06:09.820Z,33.88
2023-02-14T19:08:38.961Z,33.83
2023-02-14T19:11:17.626Z,36.40
2023-02-14T19:13:51.010Z,36.70
2023-02-14T19:16:21.522Z,36.80
2023-02-14T19:18:55.685Z,38.35
2023-02-14T19:21:26.006Z,36.22
2023-02-14T19:23:56.192Z,35.65
2023-02-14T19:26:29.834Z,36.85
2023-02-14T19:29:01.996Z,41.53
2023-02-14T19:31:30.992Z,39.83
2023-02-14T19:33:58.203Z,40.00
2023-02-14T19:36:25.551Z,39.13
2023-02-14T19:38:54.164Z,39.35
2023-02-14T19:41:25.184Z,38.92
2023-02-14T19:43:55.095Z,38.80
2023-02-14T19:46:22.439Z,40.47
2023-02-14T19:48:49.998Z,38.78
2023-02-14T19:51:21.492Z,43.25
2023-02-14T19:53:49.760Z,40.00
2023-02-14T19:56:22.246Z,42.17
2023-02-14T19:58:50.708Z,37.75
2023-02-14T20:01:41.513Z,41.70
2023-02-14T20:04:12.074Z,41.20
2023-02-14T20:06:39.383Z,38.92
2023-02-14T20:09:07.772Z,37.05
2023-02-14T20:11:49.894Z,38.42
2023-02-14T20:14:23.035Z,38.90
2023-02-14T20:16:51.815Z,41.30
2023-02-14T20:19:23.073Z,42.13
2023-02-14T20:21:51.217Z,38.60
2023-02-14T20:24:25.174Z,39.25
2023-02-14T20:26:53.324Z,39.53
2023-02-14T20:29:22.651Z,39.72
2023-02-14T20:31:52.670Z,38.75
2023-02-14T20:34:20.049Z,39.60
2023-02-14T20:36:52.946Z,37.15
2023-02-14T20:39:22.294Z,38.65
2023-02-14T20:41:53.951Z,40.78
2023-02-14T20:44:21.680Z,41.08
2023-02-14T20:46:51.613Z,39.92
2023-02-14T20:49:20.282Z,39.75
2023-02-14T20:51:49.690Z,39.05
2023-02-14T20:54:22.232Z,38.00
2023-02-14T20:56:50.777Z,39.67
2023-02-14T20:59:19.375Z,40.65
2023-02-14T21:01:47.331Z,38.53
2023-02-14T21:04:16.479Z,40.33
2023-02-14T21:06:43.894Z,40.72
2023-02-14T21:09:11.168Z,38.13
2023-02-14T21:11:38.486Z,39.47
2023-02-14T21:14:05.775Z,38.45
2023-02-14T21:16:33.371Z,40.17
2023-02-14T21:19:00.829Z,39.78
2023-02-14T21:21:32.511Z,38.95
2023-02-14T21:24:01.909Z,35.95
2023-02-14T21:26:29.335Z,37.45
2023-02-14T21:28:56.843Z,37.50
2023-02-14T21:31:27.457Z,39.33
2023-02-14T21:33:57.414Z,39.33
2023-02-14T21:36:27.048Z,38.85
2023-02-14T21:38:58.699Z,39.38
2023-02-14T21:41:28.787Z,40.03
2023-02-14T21:43:58.700Z,40.25
2023-02-14T21:46:31.290Z,40.28
2023-02-14T21:49:19.048Z,40.58
2023-02-14T21:54:15.117Z,38.25
2023-02-14T21:56:43.002Z,40.55
2023-02-14T21:59:10.338Z,39.80
2023-02-14T22:01:40.148Z,39.40
2023-02-14T22:04:09.926Z,39.25
2023-02-14T22:06:39.107Z,39.88
2023-02-14T22:09:06.932Z,40.72
2023-02-14T22:11:34.920Z,38.63
2023-02-14T22:14:02.780Z,39.00
2023-02-14T22:16:30.156Z,39.22
2023-02-14T22:18:58.237Z,42.63
2023-02-14T22:21:26.959Z,37.70
2023-02-14T22:23:55.664Z,38.33
2023-02-14T22:26:25.806Z,36.47
2023-02-14T22:29:03.129Z,32.95
2023-02-14T22:31:34.830Z,34.10
2023-02-14T22:34:03.132Z,33.13
2023-02-14T22:36:30.704Z,31.05
2023-02-14T22:38:58.254Z,32.85
2023-02-14T22:41:26.469Z,32.92
2023-02-14T22:43:53.941Z,32.35
2023-02-14T22:46:27.485Z,31.63
2023-02-14T22:48:55.929Z,34.25
2023-02-14T22:51:26.212Z,33.08
2023-02-14T22:53:58.304Z,32.30
2023-02-14T22:56:31.430Z,30.58
2023-02-14T22:59:01.679Z,31.40
2023-02-14T23:01:28.932Z,29.80
2023-02-14T23:03:58.246Z,30.83
2023-02-14T23:06:28.185Z,30.55
2023-02-14T23:08:56.571Z,28.67
2023-02-14T23:11:29.698Z,31.25
2023-02-14T23:14:15.475Z,30.30
2023-02-14T23:17:01.738Z,30.77
2023-02-14T23:19:53.674Z,28.90
2023-02-14T23:22:36.607Z,30.23
2023-02-14T23:25:07.276Z,28.52
2023-02-14T23:27:44.361Z,33.50
2023-02-14T23:32:40.711Z,31.98
2023-02-14T23:35:08.637Z,31.55
2023-02-14T23:37:35.931Z,31.02
2023-02-14T23:40:04.088Z,29.70
2023-02-14T23:42:31.407Z,28.30
2023-02-14T23:45:18.721Z,30.35
2023-02-14T23:47:46.124Z,30.35
2023-02-14T23:50:13.798Z,31.17
2023-02-14T23:52:41.833Z,30.52
2023-02-14T23:55:09.453Z,30.40
2023-02-14T23:57:37.107Z,30.33
